• Join FlightAware (Why Join?)
  • Login
  • US Flag 
10:55PM EST


 

Airport Tracker/Info


-or-


 

Live Flight TrackerFlight Track Log ✈ UAL4530 ✈ 16-Apr-2013 ✈ KEWR - KMCI

Flight Track Log - Related Links

Times and Time Zones

All times are in EDT time to prevent confusion due to time zone crossing. See the UAL4530 flight status page for this flight to view local times or setup timezone preferences in your user account.

Time Position Orientation Groundspeed Altitude Reporting Facility
EDT Latitude Longitude Course Direction KTS MPH feet Rate Location/Type
12:58PM 40.6500 -74.2000 276° West 183 211 2,400  Level New York TRACON
12:59PM 40.6500 -74.2833 270° West 216 249 5,100 2,700 Climbing New York TRACON
01:00PM 40.6667 -74.3500 288° West 213 245 7,900 2,640 Climbing New York TRACON
01:01PM 40.7461 -74.6571 277° West  Level FlightAware Approximate
01:01PM 40.6833 -74.4333 285° West 210 242 10,400  Level New York TRACON
01:02PM 40.7565 -74.7845 276° West  Level FlightAware Approximate
01:02PM 40.7000 -74.5000 288° West 226 260 12,700  Level New York TRACON
01:03PM 40.7663 -74.9121 276° West  Level FlightAware Approximate
01:03PM 40.7828 -74.5997 318° Northwest 240 276 15,200  Level New York Center
01:04PM 40.7875 -74.7122 273° West 294 338 16,100 900 Climbing New York Center
01:05PM 40.7919 -74.8303 273° West 312 359 17,100 1,020 Climbing New York Center
01:06PM 40.7964 -74.9403 273° West 337 388 18,200 1,260 Climbing New York Center
01:07PM 40.8019 -75.0722 273° West 337 388 19,700 1,500 Climbing New York Center
01:08PM 40.7953 -75.2006 266° West 337 388 21,200 1,440 Climbing New York Center
01:09PM 40.7764 -75.3089 257° West 342 394 22,600 1,380 Climbing New York Center
01:10PM 40.7467 -75.4303 252° West 347 399 24,000 1,440 Climbing New York Center
01:11PM 40.7044 -75.5506 245° Southwest 347 399 25,600 1,440 Climbing New York Center
01:12PM 40.6625 -75.6600 243° Southwest 347 399 27,000 1,380 Climbing New York Center
01:14PM 40.6222 -75.7719 245° Southwest 342 394 28,500 1,380 Climbing New York Center
01:15PM 40.5825 -75.8756 243° Southwest 337 388 29,900 1,380 Climbing New York Center
01:15PM 40.5408 -75.9708 240° Southwest 331 381 31,300 1,140 Climbing New York Center
01:16PM 40.5050 -76.0719 245° Southwest 326 375 32,200 780 Climbing New York Center
01:18PM 40.4625 -76.1806 243° Southwest 326 375 32,900 720 Climbing New York Center
01:18PM 40.4222 -76.2892 244° Southwest 326 375 33,700 840 Climbing New York Center
01:19PM 40.3794 -76.3975 243° Southwest 337 388 34,600 900 Climbing New York Center
01:20PM 40.3389 -76.5058 244° Southwest 337 388 35,600 660 Climbing New York Center
01:22PM 40.2964 -76.6083 241° Southwest 337 388 36,000 180 Climbing New York Center
01:23PM 40.2533 -76.7164 242° Southwest 337 388 36,000  Level New York Center
01:24PM 40.2081 -76.8292 242° Southwest 343 395 36,000  Level New York Center
01:24PM 40.1536 -76.9578 241° Southwest 348 400 36,000  Level New York Center
01:25PM 40.1053 -77.0811 243° Southwest 368 423 36,000  Level New York Center
01:26PM 40.0547 -77.2067 242° Southwest 386 444 36,000  Level New York Center
01:28PM 40.0039 -77.3322 242° Southwest 393 452 36,000  Level New York Center
01:30PM 39.9589 -77.6658 260° West 386 444 36,000  Level Cleveland Center
01:31PM 39.9647 -77.8119 273° West 393 452 36,000  Level Cleveland Center
01:32PM 39.9681 -77.9581 272° West 405 466 36,000  Level Cleveland Center
01:33PM 39.9733 -78.1014 273° West 405 466 36,000  Level Cleveland Center
01:34PM 39.9786 -78.2475 273° West 405 466 36,000  Level Cleveland Center
01:35PM 39.9794 -78.3911 270° West 400 460 36,000  Level Cleveland Center
01:36PM 39.9844 -78.5508 272° West 406 467 36,000  Level Cleveland Center
01:37PM 39.9892 -78.6997 272° West 406 467 36,000  Level Cleveland Center
01:38PM 39.9914 -78.8433 271° West 401 461 36,000  Level Cleveland Center
01:39PM 39.9997 -78.9894 274° West 401 461 36,000  Level Cleveland Center
01:40PM 40.0017 -79.1250 271° West 396 456 36,000  Level Cleveland Center
01:41PM 40.0031 -79.2578 271° West 382 440 36,000  Level Cleveland Center
01:42PM 40.0067 -79.3850 272° West 370 426 36,000  Level Cleveland Center
01:43PM 40.0081 -79.5153 271° West 365 420 36,000  Level Cleveland Center
01:44PM 40.0092 -79.6506 271° West 365 420 36,000  Level Cleveland Center
01:45PM 40.0103 -79.7889 271° West 365 420 36,000  Level Cleveland Center
01:46PM 40.0111 -79.9272 270° West 377 434 36,000  Level Cleveland Center
01:47PM 40.0139 -80.0408 272° West 387 445 36,000  Level Cleveland Center
01:48PM 40.0144 -80.1956 270° West 387 445 36,000 -660 Level Cleveland Center
01:49PM 40.0169 -80.3308 271° West 382 440 34,700 -1,440 Descending Cleveland Center
01:50PM 40.0172 -80.4664 270° West 382 440 33,200 -1,380 Descending Cleveland Center
01:51PM 40.0192 -80.6128 271° West 388 447 32,000 -600 Descending Cleveland Center
01:52PM 40.0192 -80.7592 270° West 405 466 32,000  Level Cleveland Center
01:53PM 40.0186 -80.9083 270° West 405 466 32,000  Level Cleveland Center
01:55PM 40.0122 -81.1536 268° West 411 473 32,000  Level Indianapolis Center
01:56PM 40.0092 -81.3039 269° West 411 473 32,000  Level Indianapolis Center
01:57PM 40.0058 -81.4531 268° West 409 471 32,000  Level Indianapolis Center
01:58PM 40.0036 -81.6036 269° West 411 473 32,000  Level Indianapolis Center
01:59PM 40.0006 -81.7514 269° West 405 466 32,000  Level Indianapolis Center
02:00PM 39.9972 -81.8964 268° West 409 471 32,000  Level Indianapolis Center
02:01PM 39.9936 -82.0458 268° West 410 472 32,000  Level Indianapolis Center
02:02PM 39.9897 -82.2181 268° West 405 466 32,000  Level Indianapolis Center
02:03PM 39.9853 -82.3656 268° West 405 466 32,000  Level Indianapolis Center
02:04PM 39.9822 -82.5133 269° West 405 466 32,000  Level Indianapolis Center
02:05PM 39.9772 -82.6597 267° West 403 464 32,000  Level Indianapolis Center
02:06PM 39.9728 -82.8056 268° West 401 461 32,000  Level Indianapolis Center
02:07PM 39.9692 -82.9506 268° West 399 459 32,000  Level Indianapolis Center
02:08PM 39.9647 -83.0961 268° West 399 459 32,000  Level Indianapolis Center
02:09PM 39.9614 -83.2389 268° West 394 453 32,000  Level Indianapolis Center
02:10PM 39.9575 -83.3817 268° West 395 455 32,000  Level Indianapolis Center
02:11PM 39.9514 -83.5472 267° West 398 458 32,000  Level Indianapolis Center
02:12PM 39.9450 -83.6881 267° West 393 452 32,000  Level Indianapolis Center
02:13PM 39.9403 -83.8328 268° West 396 456 32,000  Level Indianapolis Center
02:14PM 39.9344 -83.9769 267° West 397 457 32,000  Level Indianapolis Center
02:15PM 39.9286 -84.1219 267° West 398 458 32,000  Level Indianapolis Center
02:16PM 39.9228 -84.2675 267° West 399 459 32,000  Level Indianapolis Center
02:17PM 39.9161 -84.4131 267° West 398 458 32,000  Level Indianapolis Center
02:18PM 39.9081 -84.5842 267° West 401 461 32,000  Level Indianapolis Center
02:19PM 39.9008 -84.7317 266° West 404 465 32,000  Level Indianapolis Center
02:20PM 39.8950 -84.8764 267° West 398 458 32,000  Level Indianapolis Center
02:21PM 39.8881 -85.0233 267° West 402 463 32,000  Level Indianapolis Center
02:22PM 39.8794 -85.1697 266° West 402 463 32,000  Level Indianapolis Center
02:23PM 39.8717 -85.3139 266° West 397 457 32,000  Level Indianapolis Center
02:24PM 39.8594 -85.4581 264° West 399 459 32,000  Level Indianapolis Center
02:25PM 39.8183 -85.5936 248° West 400 460 32,000  Level Indianapolis Center
02:26PM 39.7794 -85.7297 250° West 399 459 32,000 120 Level Indianapolis Center
02:27PM 39.7433 -85.8906 254° West 396 456 32,300 480 Climbing Indianapolis Center
02:28PM 39.7144 -86.0264 255° West 396 456 33,100 780 Climbing Indianapolis Center
02:29PM 39.6842 -86.1625 254° West 393 452 34,000 780 Climbing Indianapolis Center
02:30PM 39.6553 -86.2969 254° West 389 448 34,700 660 Climbing Indianapolis Center
02:32PM 39.6261 -86.4294 254° West 384 442 35,400 600 Climbing Indianapolis Center
02:33PM 39.6150 -86.5611 264° West 371 427 36,000 240 Climbing Indianapolis Center
02:34PM 39.6258 -86.6981 276° West 379 436 36,000  Level Indianapolis Center
02:35PM 39.6372 -86.8358 276° West 383 441 36,000  Level Indianapolis Center
02:36PM 39.6522 -87.0044 277° West 389 448 36,000  Level Indianapolis Center
02:37PM 39.6633 -87.1461 276° West 393 452 36,000  Level Indianapolis Center
02:38PM 39.6750 -87.2872 276° West 394 453 36,000  Level Indianapolis Center
02:39PM 39.6861 -87.4281 276° West 393 452 36,000  Level Indianapolis Center
02:40PM 39.6956 -87.5597 275° West 375 432 36,000  Level Indianapolis Center
02:41PM 39.7061 -87.6886 276° West 364 419 36,000  Level Indianapolis Center
02:42PM 39.7169 -87.8200 276° West 363 418 36,000  Level Indianapolis Center
02:43PM 39.7281 -87.9808 275° West 367 422 36,000  Level Indianapolis Center
02:44PM 39.7383 -88.1150 276° West 369 425 36,000  Level Indianapolis Center
02:45PM 39.7478 -88.2492 275° West 371 427 36,000  Level Indianapolis Center
02:46PM 39.7575 -88.3844 275° West 373 429 36,000  Level Indianapolis Center
02:47PM 39.7669 -88.5197 275° West 374 430 36,000  Level Indianapolis Center
02:48PM 39.7767 -88.6553 275° West 375 432 36,000  Level Indianapolis Center
02:49PM 39.7867 -88.7922 275° West 377 434 36,000  Level Indianapolis Center
02:50PM 39.7944 -88.9297 274° West 378 435 36,000  Level Indianapolis Center
02:51PM 39.8061 -89.0961 275° West 382 440 36,000  Level Indianapolis Center
02:52PM 39.8153 -89.2344 275° West 383 441 36,000  Level Indianapolis Center
02:53PM 39.8242 -89.3756 275° West 386 444 36,000  Level Indianapolis Center
02:54PM 39.8294 -89.5169 273° West 387 445 36,000  Level Kansas City Center
02:55PM 39.8378 -89.6581 274° West 389 448 36,000  Level Kansas City Center
02:56PM 39.8406 -89.8008 271° West 392 451 36,000  Level Kansas City Center
02:57PM 39.8419 -89.9428 271° West 392 451 36,000  Level Kansas City Center
02:58PM 39.8428 -90.1147 270° West 393 452 36,000  Level Kansas City Center
02:59PM 39.8442 -90.2592 271° West 395 455 36,000  Level Kansas City Center
03:00PM 39.8464 -90.4053 271° West 400 460 36,000  Level Kansas City Center
03:01PM 39.8464 -90.5492 270° West 398 458 36,000  Level Kansas City Center
03:02PM 39.8467 -90.6922 270° West 397 457 36,000  Level Kansas City Center
03:03PM 39.8469 -90.8367 270° West 397 457 36,000  Level Kansas City Center
03:04PM 39.8483 -90.9992 271° West 397 457 36,000  Level Kansas City Center
03:06PM 39.8475 -91.1403 270° West 394 453 36,000 -300 Level Kansas City Center
03:07PM 39.8481 -91.2814 270° West 393 452 35,400 -840 Descending Kansas City Center
03:08PM 39.8369 -91.4236 264° West 394 453 34,400 -720 Descending Kansas City Center
03:09PM 39.8272 -91.5622 265° West 392 451 34,000 -240 Descending Kansas City Center
03:10PM 39.8167 -91.7014 264° West 389 448 34,000  Level Kansas City Center
03:11PM 39.8025 -91.8714 264° West 393 452 34,000  Level Kansas City Center
03:12PM 39.7931 -92.0086 265° West 387 445 34,000 -360 Level Kansas City Center
03:13PM 39.7825 -92.1492 264° West 388 447 33,300 -900 Descending Kansas City Center
03:14PM 39.7703 -92.2919 264° West 394 453 32,200 -1,140 Descending Kansas City Center
03:15PM 39.7594 -92.4281 264° West 388 447 31,000 -1,200 Descending Kansas City Center
03:16PM 39.7472 -92.5653 263° West 382 440 29,800 -1,140 Descending Kansas City Center
03:17PM 39.7356 -92.7144 264° West 405 466 28,700 -1,260 Descending Kansas City Center
03:18PM 39.7194 -92.8928 263° West 413 475 27,200 -1,260 Descending Kansas City Center
03:19PM 39.7064 -93.0389 263° West 410 472 26,100 -1,140 Descending Kansas City Center
03:20PM 39.6939 -93.1850 264° West 409 471 24,900 -1,200 Descending Kansas City Center
03:21PM 39.6806 -93.3242 263° West 395 455 23,700 -1,200 Descending Kansas City Center
03:22PM 39.6686 -93.4589 263° West 385 443 22,500 -1,200 Descending Kansas City Center
03:23PM 39.6561 -93.5961 263° West 384 442 21,300 -1,320 Descending Kansas City Center
03:24PM 39.6408 -93.7636 263° West 381 438 19,800 -1,260 Descending Kansas City Center
03:25PM 39.6247 -93.8908 261° West 376 433 18,700 -1,200 Descending Kansas City Center
03:26PM 39.5694 -93.9978 236° Southwest 370 426 17,500 -1,560 Descending Kansas City Center
03:27PM 39.5100 -94.1139 236° Southwest 346 398 15,600 -1,860 Descending Kansas City Center
03:28PM 39.4614 -94.2094 237° Southwest 333 383 13,700 -1,680 Descending Kansas City Center
03:29PM 39.4042 -94.3233 237° Southwest 339 390 12,100 -840 Descending Kansas City Center
03:30PM 39.3547 -94.4192 236° Southwest 334 384 12,000 -240 Descending Kansas City Center
03:31PM 39.3006 -94.5253 237° Southwest 317 365 11,700 -540 Descending Kansas City Center
03:32PM 39.2631 -94.5961 236° Southwest 252 290 10,900 -1,320 Descending Kansas City Center
03:33PM 39.1892 -94.6131 190° South 241 277 9,000 -1,860 Descending Kansas City Center
03:34PM 39.1239 -94.6300 191° South 248 285 7,100 -1,920 Descending Kansas City Center
03:35PM 39.1092 -94.7069 256° West 263 303 5,100 -1,680 Descending Kansas City Center
03:36PM 39.1800 -94.7406 340° North 247 284 3,800 -1,320 Descending Kansas City Center
03:37PM 39.2331 -94.7239 14° North 204 235 2,400 -1,260 Descending Kansas City Center
03:38PM 39.2781 -94.7100 13° North 146 168 1,200 -1,200 Descending Kansas City Center